createdAt,value
2019-01-15T00:02:28.826Z,18.57
2019-01-15T00:04:59.976Z,15.87
2019-01-15T00:07:31.157Z,21.83
2019-01-15T00:10:02.183Z,17.67
2019-01-15T00:12:32.979Z,18.60
2019-01-15T00:15:04.018Z,24.10
2019-01-15T00:17:34.624Z,13.53
2019-01-15T00:20:06.385Z,18.00
2019-01-15T00:22:37.279Z,21.50
2019-01-15T00:25:08.198Z,17.47
2019-01-15T00:27:39.353Z,17.37
2019-01-15T00:30:12.737Z,18.25
2019-01-15T00:32:43.357Z,20.40
2019-01-15T00:35:14.342Z,20.13
2019-01-15T00:37:45.020Z,13.27
2019-01-15T00:40:17.241Z,21.33
2019-01-15T00:42:47.941Z,16.17
2019-01-15T00:45:18.566Z,17.17
2019-01-15T00:47:49.252Z,18.67
2019-01-15T00:50:20.247Z,20.10
2019-01-15T00:52:51.100Z,20.15
2019-01-15T00:55:22.128Z,20.50
2019-01-15T00:57:53.078Z,23.57
2019-01-15T01:00:24.349Z,15.77
2019-01-15T01:02:54.981Z,22.50
2019-01-15T01:05:25.661Z,12.47
2019-01-15T01:07:56.643Z,20.37
2019-01-15T01:10:27.256Z,24.00
2019-01-15T01:12:57.931Z,18.87
2019-01-15T01:15:29.168Z,16.52
2019-01-15T01:18:00.407Z,17.63
2019-01-15T01:20:33.086Z,16.90
2019-01-15T01:23:03.743Z,21.80
2019-01-15T01:25:34.340Z,16.43
2019-01-15T01:28:05.321Z,17.57
2019-01-15T01:30:36.468Z,18.15
2019-01-15T01:33:07.193Z,18.53
2019-01-15T01:35:38.234Z,15.40
2019-01-15T01:38:09.227Z,14.75
2019-01-15T01:40:39.904Z,22.13
2019-01-15T01:43:10.671Z,18.37
2019-01-15T01:45:41.230Z,22.25
2019-01-15T01:48:11.989Z,20.87
2019-01-15T01:50:42.683Z,28.54
2019-01-15T01:53:13.517Z,21.10
2019-01-15T01:55:44.457Z,23.40
2019-01-15T01:58:15.446Z,16.63
2019-01-15T02:00:46.253Z,26.50
2019-01-15T02:03:17.514Z,29.80
2019-01-15T02:05:48.617Z,17.60
2019-01-15T02:08:19.309Z,13.30
2019-01-15T02:10:49.981Z,25.77
2019-01-15T02:13:20.993Z,23.05
2019-01-15T02:15:52.188Z,20.70
2019-01-15T02:18:22.792Z,25.53
2019-01-15T02:20:53.823Z,18.27
2019-01-15T02:23:24.470Z,18.40
2019-01-15T02:25:55.097Z,17.83
2019-01-15T02:28:25.765Z,18.67
2019-01-15T02:30:56.645Z,11.40
2019-01-15T02:33:27.626Z,23.87
2019-01-15T02:35:58.429Z,16.80
2019-01-15T02:38:29.157Z,17.13
2019-01-15T02:41:00.235Z,27.43
2019-01-15T02:43:31.403Z,23.83
2019-01-15T02:46:02.327Z,9.50
2019-01-15T02:48:33.158Z,20.70
2019-01-15T02:51:03.945Z,18.60
2019-01-15T02:53:34.581Z,13.40
2019-01-15T02:56:05.247Z,20.93
2019-01-15T02:58:35.908Z,23.90
2019-01-15T03:01:06.570Z,18.17
2019-01-15T03:03:37.279Z,12.67
2019-01-15T03:06:07.991Z,15.70
2019-01-15T03:08:38.876Z,22.43
2019-01-15T03:11:10.062Z,14.23
2019-01-15T03:13:40.731Z,17.53
2019-01-15T03:16:11.423Z,15.80
2019-01-15T03:18:42.052Z,15.90
2019-01-15T03:21:12.757Z,14.67
2019-01-15T03:23:43.668Z,17.03
2019-01-15T03:26:14.322Z,29.77
2019-01-15T03:28:45.366Z,14.73
2019-01-15T03:31:15.996Z,16.37
2019-01-15T03:33:46.914Z,16.63
2019-01-15T03:36:17.655Z,12.00
2019-01-15T03:38:48.334Z,17.73
2019-01-15T03:41:19.024Z,14.10
2019-01-15T03:43:49.711Z,17.35
2019-01-15T03:46:20.333Z,14.23
2019-01-15T03:48:50.945Z,22.63
2019-01-15T03:51:21.916Z,17.23
2019-01-15T03:53:52.543Z,12.03
2019-01-15T03:56:23.177Z,19.13
2019-01-15T03:58:55.206Z,16.17
2019-01-15T04:01:26.138Z,16.17
2019-01-15T04:03:56.850Z,24.23
2019-01-15T04:06:27.530Z,20.87
2019-01-15T04:08:59.027Z,10.60
2019-01-15T04:11:30.037Z,19.50
2019-01-15T04:14:01.344Z,13.30
2019-01-15T04:16:32.355Z,19.70
2019-01-15T04:19:02.990Z,15.43
2019-01-15T04:21:33.686Z,18.73
2019-01-15T04:24:04.335Z,16.87
2019-01-15T04:26:34.969Z,19.52
2019-01-15T04:29:05.708Z,19.07
2019-01-15T04:31:36.332Z,14.67
2019-01-15T04:34:07.261Z,19.07
2019-01-15T04:36:37.931Z,19.47
2019-01-15T04:39:09.706Z,12.73
2019-01-15T04:41:40.643Z,12.17
2019-01-15T04:44:11.921Z,15.07
2019-01-15T04:46:43.180Z,14.93
2019-01-15T04:49:14.129Z,18.32
2019-01-15T04:51:45.228Z,13.30
2019-01-15T04:54:15.971Z,11.77
2019-01-15T04:56:46.900Z,15.05
2019-01-15T04:59:17.849Z,18.27
2019-01-15T05:01:48.888Z,17.27
2019-01-15T05:04:19.558Z,18.27
2019-01-15T05:06:50.300Z,18.00
2019-01-15T05:09:20.952Z,11.23
2019-01-15T05:11:51.752Z,16.73
2019-01-15T05:14:22.521Z,8.75
2019-01-15T05:16:53.499Z,9.97
2019-01-15T05:19:24.181Z,12.10
2019-01-15T05:21:55.281Z,9.20
2019-01-15T05:24:26.209Z,14.53
2019-01-15T05:26:56.843Z,20.47
2019-01-15T05:29:27.841Z,17.03
2019-01-15T05:31:58.520Z,15.70
2019-01-15T05:34:29.267Z,13.10
2019-01-15T05:37:00.363Z,11.87
2019-01-15T05:39:31.954Z,9.58
2019-01-15T05:42:02.558Z,9.63
2019-01-15T05:44:33.624Z,19.03
2019-01-15T05:47:04.403Z,15.67
2019-01-15T05:49:35.108Z,11.60
2019-01-15T05:52:05.876Z,13.20
2019-01-15T05:54:37.251Z,20.85
2019-01-15T05:57:07.917Z,11.60
2019-01-15T05:59:38.572Z,14.33
2019-01-15T06:02:09.175Z,9.87
2019-01-15T06:04:39.695Z,9.00
2019-01-15T06:07:10.701Z,14.90
2019-01-15T06:09:41.753Z,13.17
2019-01-15T06:12:12.877Z,18.55
2019-01-15T06:14:43.589Z,15.10
2019-01-15T06:17:14.871Z,11.55
2019-01-15T06:19:46.241Z,12.63
2019-01-15T06:22:17.207Z,14.30
2019-01-15T06:24:47.846Z,12.10
2019-01-15T06:27:19.499Z,10.90
2019-01-15T06:29:50.220Z,13.20
2019-01-15T06:32:20.831Z,6.83
2019-01-15T06:34:51.739Z,8.43
2019-01-15T06:37:22.393Z,9.50
2019-01-15T06:39:52.990Z,18.50
2019-01-15T06:42:23.605Z,10.77
2019-01-15T06:44:54.557Z,8.97
2019-01-15T06:47:25.528Z,6.17
2019-01-15T06:49:56.412Z,13.70
2019-01-15T06:52:27.079Z,10.10
2019-01-15T06:54:57.719Z,13.17
2019-01-15T06:57:30.748Z,13.13
2019-01-15T07:00:01.748Z,8.97
2019-01-15T07:02:32.896Z,12.30
2019-01-15T07:05:03.683Z,8.03
2019-01-15T07:07:34.762Z,14.30
2019-01-15T07:10:07.678Z,12.90
2019-01-15T07:12:38.649Z,15.53
2019-01-15T07:15:09.641Z,12.80
2019-01-15T07:17:40.638Z,10.07
2019-01-15T07:20:12.873Z,7.90
2019-01-15T07:22:43.935Z,6.70
2019-01-15T07:25:15.943Z,8.57
2019-01-15T07:27:46.661Z,12.00
2019-01-15T07:30:34.211Z,13.20
2019-01-15T07:33:05.167Z,10.37
2019-01-15T07:35:35.836Z,9.70
2019-01-15T07:38:06.558Z,9.63
2019-01-15T07:40:37.497Z,13.03
2019-01-15T07:43:09.054Z,15.80
2019-01-15T07:45:40.022Z,8.87
2019-01-15T07:48:11.085Z,8.50
2019-01-15T07:50:42.310Z,11.53
2019-01-15T07:53:13.452Z,11.93
2019-01-15T07:55:44.442Z,8.30
2019-01-15T07:58:15.436Z,7.30
2019-01-15T08:00:46.215Z,12.17
2019-01-15T08:03:17.755Z,11.93
2019-01-15T08:05:48.685Z,13.43
2019-01-15T08:08:19.838Z,11.87
2019-01-15T08:10:56.798Z,12.37
2019-01-15T08:13:23.330Z,10.40
2019-01-15T08:15:54.052Z,11.40
2019-01-15T08:18:25.034Z,13.87
2019-01-15T08:20:55.653Z,8.27
2019-01-15T08:23:26.677Z,7.90
2019-01-15T08:25:57.848Z,14.57
2019-01-15T08:28:28.888Z,11.23
2019-01-15T08:30:59.559Z,13.77
2019-01-15T08:33:30.501Z,8.93
2019-01-15T08:36:01.430Z,13.27
2019-01-15T08:38:32.851Z,10.47
2019-01-15T08:41:03.766Z,11.73
2019-01-15T08:43:34.463Z,17.57
2019-01-15T08:46:05.194Z,16.03
2019-01-15T08:48:36.510Z,19.67
2019-01-15T08:51:09.153Z,14.63
2019-01-15T08:53:40.848Z,16.50
2019-01-15T08:56:12.063Z,14.80
2019-01-15T08:58:42.959Z,13.40
2019-01-15T09:01:13.917Z,21.27
2019-01-15T09:03:44.921Z,24.00
2019-01-15T09:06:16.955Z,20.85
2019-01-15T09:08:47.687Z,24.77
2019-01-15T09:11:18.380Z,22.43
2019-01-15T09:13:49.573Z,25.17
2019-01-15T09:16:20.568Z,25.93
2019-01-15T09:18:51.303Z,23.60
2019-01-15T09:21:22.283Z,25.30
2019-01-15T09:23:52.982Z,22.55
2019-01-15T09:26:24.006Z,17.93
2019-01-15T09:28:54.965Z,20.28
2019-01-15T09:31:25.689Z,29.23
2019-01-15T09:33:56.639Z,23.07
2019-01-15T09:36:27.913Z,26.30
2019-01-15T09:38:58.618Z,21.10
2019-01-15T09:41:29.331Z,28.37
2019-01-15T09:44:00.630Z,24.23
2019-01-15T09:46:33.045Z,30.55
2019-01-15T09:49:03.791Z,27.73
2019-01-15T09:51:34.478Z,30.23
2019-01-15T09:54:06.193Z,28.13
2019-01-15T09:56:37.487Z,31.97
2019-01-15T09:59:08.668Z,31.33
2019-01-15T10:01:40.349Z,29.60
2019-01-15T10:04:11.591Z,28.20
2019-01-15T10:06:43.117Z,24.00
2019-01-15T10:09:15.316Z,28.73
2019-01-15T10:11:46.561Z,28.63
2019-01-15T10:14:17.979Z,33.23
2019-01-15T10:16:49.596Z,28.83
2019-01-15T10:19:21.189Z,36.13
2019-01-15T10:21:52.516Z,31.00
2019-01-15T10:24:25.996Z,30.33
2019-01-15T10:26:58.242Z,27.75
2019-01-15T10:29:30.191Z,33.07
2019-01-15T10:32:44.385Z,28.80
2019-01-15T10:35:57.238Z,31.30
2019-01-15T10:38:30.487Z,32.67
2019-01-15T10:41:01.974Z,36.27
2019-01-15T10:43:34.928Z,41.47
2019-01-15T10:46:07.565Z,37.20
2019-01-15T10:48:39.058Z,33.57
2019-01-15T10:51:10.695Z,36.50
2019-01-15T10:53:42.242Z,36.23
2019-01-15T10:56:13.820Z,36.57
2019-01-15T10:58:45.039Z,40.63
2019-01-15T11:01:16.367Z,41.70
2019-01-15T11:03:48.021Z,36.83
2019-01-15T11:06:19.279Z,42.27
2019-01-15T11:08:50.529Z,33.43
2019-01-15T11:11:22.071Z,37.10
2019-01-15T11:13:53.771Z,41.20
2019-01-15T11:16:25.190Z,37.90
2019-01-15T11:18:56.753Z,41.87
2019-01-15T11:21:28.467Z,41.13
2019-01-15T11:24:00.024Z,38.27
2019-01-15T11:26:31.406Z,36.73
2019-01-15T11:29:02.982Z,38.50
2019-01-15T11:31:34.208Z,37.13
2019-01-15T11:34:05.492Z,38.87
2019-01-15T11:36:36.747Z,38.50
2019-01-15T11:39:11.205Z,33.73
2019-01-15T11:41:42.686Z,38.57
2019-01-15T11:44:13.995Z,42.37
2019-01-15T11:46:45.183Z,42.57
2019-01-15T11:49:16.726Z,39.97
2019-01-15T11:51:48.680Z,38.83
2019-01-15T11:54:20.334Z,37.57
2019-01-15T11:56:51.892Z,36.23
2019-01-15T11:59:23.440Z,34.40
2019-01-15T12:02:22.225Z,39.47
2019-01-15T12:05:07.607Z,34.70
2019-01-15T12:07:57.043Z,39.83
2019-01-15T12:10:46.107Z,38.57
2019-01-15T12:13:48.464Z,38.43
2019-01-15T12:16:41.044Z,48.43
2019-01-15T12:19:31.475Z,47.00
2019-01-15T12:22:24.551Z,40.23
2019-01-15T12:25:12.802Z,44.07
2019-01-15T12:28:01.375Z,41.40
2019-01-15T12:31:04.329Z,38.03
2019-01-15T12:34:09.579Z,49.10
2019-01-15T12:36:57.866Z,44.43
2019-01-15T12:39:53.739Z,40.93
2019-01-15T12:42:50.129Z,48.70
2019-01-15T12:45:48.899Z,41.00
2019-01-15T12:48:37.893Z,39.47
2019-01-15T12:51:33.979Z,43.17
2019-01-15T12:54:40.411Z,39.90
2019-01-15T12:57:30.454Z,39.23
2019-01-15T13:00:29.320Z,36.10
2019-01-15T13:03:19.910Z,40.80
2019-01-15T13:06:10.146Z,41.07
2019-01-15T13:08:57.639Z,40.98
2019-01-15T13:11:59.495Z,35.83
2019-01-15T13:14:47.807Z,35.00
2019-01-15T13:17:37.509Z,42.57
2019-01-15T13:20:30.326Z,34.60
2019-01-15T13:23:24.148Z,37.73
2019-01-15T13:26:12.945Z,41.07
2019-01-15T13:29:15.580Z,34.70
2019-01-15T13:32:02.338Z,39.83
2019-01-15T13:34:55.177Z,33.27
2019-01-15T13:37:46.736Z,35.10
2019-01-15T13:40:42.447Z,39.57
2019-01-15T13:43:25.234Z,42.93
2019-01-15T13:46:12.329Z,36.90
2019-01-15T13:48:53.155Z,40.53
2019-01-15T13:51:42.422Z,41.23
2019-01-15T13:54:31.520Z,34.23
2019-01-15T13:57:31.099Z,32.37
2019-01-15T14:00:18.549Z,41.50
2019-01-15T14:03:20.650Z,31.97
2019-01-15T14:06:21.022Z,40.13
2019-01-15T14:09:18.932Z,37.10
2019-01-15T14:11:59.586Z,41.67
2019-01-15T14:14:48.294Z,28.03
2019-01-15T14:17:35.840Z,32.00
2019-01-15T14:20:32.586Z,35.10
2019-01-15T14:23:24.644Z,36.10
2019-01-15T14:26:13.328Z,32.70
2019-01-15T14:29:03.925Z,37.67
2019-01-15T14:31:59.927Z,32.27
2019-01-15T14:34:52.680Z,29.07
2019-01-15T14:37:42.622Z,27.07
2019-01-15T14:40:48.322Z,37.77
2019-01-15T14:43:49.850Z,30.53
2019-01-15T14:46:39.306Z,25.20
2019-01-15T14:49:28.219Z,25.23
2019-01-15T14:52:11.487Z,29.27
2019-01-15T14:55:00.256Z,28.80
2019-01-15T14:57:45.082Z,25.40
2019-01-15T15:00:47.499Z,30.07
2019-01-15T15:03:43.733Z,26.53
2019-01-15T15:06:32.379Z,29.70
2019-01-15T15:09:20.816Z,27.37
2019-01-15T15:12:13.505Z,27.60
2019-01-15T15:15:09.620Z,27.47
2019-01-15T15:18:04.696Z,23.90
2019-01-15T15:21:03.466Z,29.50
2019-01-15T15:23:50.842Z,25.93
2019-01-15T15:26:34.824Z,25.23
2019-01-15T15:29:37.180Z,22.70
2019-01-15T15:32:45.388Z,26.80
2019-01-15T15:35:33.723Z,28.37
2019-01-15T15:38:29.988Z,21.83
2019-01-15T15:41:18.617Z,22.97
2019-01-15T15:44:14.395Z,21.63
2019-01-15T15:47:13.266Z,21.80
2019-01-15T15:50:06.267Z,21.20
2019-01-15T15:52:54.856Z,19.53
2019-01-15T15:55:43.600Z,21.45
2019-01-15T15:58:32.203Z,21.60
2019-01-15T16:01:31.828Z,21.62
2019-01-15T16:04:33.397Z,22.73
2019-01-15T16:07:35.319Z,23.43
2019-01-15T16:10:26.988Z,26.00
2019-01-15T16:13:25.681Z,22.37
2019-01-15T16:24:09.426Z,21.37
2019-01-15T16:26:59.413Z,25.87
2019-01-15T16:29:48.121Z,28.17
2019-01-15T16:32:36.449Z,32.30
2019-01-15T16:35:29.793Z,32.30
2019-01-15T16:38:19.730Z,33.70
2019-01-15T16:41:11.752Z,27.17
2019-01-15T16:43:59.910Z,32.07
2019-01-15T16:47:08.086Z,29.90
2019-01-15T16:49:55.456Z,27.07
2019-01-15T16:52:43.972Z,25.77
2019-01-15T16:55:52.354Z,34.63
2019-01-15T16:58:42.282Z,36.20
2019-01-15T17:01:32.232Z,38.93
2019-01-15T17:04:21.064Z,28.85
2019-01-15T17:07:10.169Z,37.15
2019-01-15T17:09:53.575Z,28.77
2019-01-15T17:12:42.490Z,37.13
2019-01-15T17:15:50.668Z,24.77
2019-01-15T17:18:46.674Z,36.03
2019-01-15T17:21:35.939Z,33.27
2019-01-15T17:24:26.078Z,36.00
2019-01-15T17:27:19.492Z,33.93
2019-01-15T17:30:11.287Z,35.43
2019-01-15T17:33:00.094Z,31.83
2019-01-15T17:35:59.010Z,33.67
2019-01-15T17:39:01.777Z,36.13
2019-01-15T17:41:59.089Z,37.37
2019-01-15T17:44:39.072Z,30.90
2019-01-15T17:47:41.531Z,33.43
2019-01-15T17:50:39.882Z,35.13
2019-01-15T17:53:33.134Z,29.77
2019-01-15T17:56:21.781Z,33.08
2019-01-15T17:59:20.323Z,36.30
2019-01-15T18:02:13.682Z,38.17
2019-01-15T18:05:02.773Z,40.60
2019-01-15T18:08:07.005Z,37.80
2019-01-15T18:11:03.631Z,38.15
2019-01-15T18:13:52.225Z,40.77
2019-01-15T18:16:38.902Z,38.00
2019-01-15T18:19:44.168Z,45.98
2019-01-15T18:22:37.461Z,40.27
2019-01-15T18:25:43.177Z,39.27
2019-01-15T18:28:28.836Z,41.20
2019-01-15T18:31:22.206Z,41.30
2019-01-15T18:34:16.369Z,47.78
2019-01-15T18:37:05.251Z,43.53
2019-01-15T18:40:04.422Z,49.90
2019-01-15T18:42:52.570Z,46.47
2019-01-15T18:45:57.782Z,44.23
2019-01-15T18:49:02.959Z,42.03
2019-01-15T18:51:51.316Z,46.40
2019-01-15T18:54:56.808Z,46.10
2019-01-15T18:57:45.380Z,45.57
2019-01-15T19:00:38.385Z,41.50
2019-01-15T19:03:34.351Z,42.43
2019-01-15T19:06:24.111Z,41.50
2019-01-15T19:09:19.915Z,42.67
2019-01-15T19:12:11.951Z,45.73
2019-01-15T19:14:53.829Z,42.13
2019-01-15T19:17:46.903Z,42.83
2019-01-15T19:20:38.305Z,42.23
2019-01-15T19:23:26.937Z,47.93
2019-01-15T19:26:17.130Z,49.67
2019-01-15T19:28:59.068Z,45.43
2019-01-15T19:32:04.645Z,49.43
2019-01-15T19:34:49.406Z,53.95
2019-01-15T19:37:31.240Z,49.10
2019-01-15T19:40:25.152Z,53.33
2019-01-15T19:43:14.443Z,50.67
2019-01-15T19:46:04.472Z,50.55
2019-01-15T19:49:03.281Z,54.85
2019-01-15T19:52:03.540Z,53.87
2019-01-15T19:54:52.907Z,47.67
2019-01-15T19:57:42.756Z,43.43
2019-01-15T20:00:34.070Z,51.03
2019-01-15T20:03:27.186Z,52.87
2019-01-15T20:06:17.370Z,54.20
2019-01-15T20:09:06.305Z,50.87
2019-01-15T20:11:49.224Z,47.37
2019-01-15T20:14:45.570Z,47.93
2019-01-15T20:17:34.803Z,50.30
2019-01-15T20:20:25.321Z,47.90
2019-01-15T20:23:12.933Z,43.37
2019-01-15T20:26:02.924Z,49.57
2019-01-15T20:28:53.907Z,47.43
2019-01-15T20:31:43.230Z,49.40
2019-01-15T20:34:32.169Z,50.20
2019-01-15T20:37:35.717Z,51.30
2019-01-15T20:40:34.650Z,48.67
2019-01-15T20:43:27.427Z,48.73
2019-01-15T20:46:21.105Z,52.97
2019-01-15T20:49:13.895Z,51.28
2019-01-15T20:52:03.811Z,45.27
2019-01-15T20:54:41.970Z,44.87
2019-01-15T20:57:31.611Z,47.43
2019-01-15T21:00:21.707Z,44.40
2019-01-15T21:03:11.984Z,44.03
2019-01-15T21:06:01.411Z,48.83
2019-01-15T21:08:54.779Z,48.27
2019-01-15T21:26:43.587Z,44.27
2019-01-15T21:29:28.111Z,46.07
2019-01-15T21:38:41.009Z,51.23
2019-01-15T21:41:37.070Z,42.03
2019-01-15T21:44:30.384Z,44.33
2019-01-15T21:47:19.338Z,40.43
2019-01-15T21:50:08.612Z,41.93
2019-01-15T21:52:57.420Z,46.57
2019-01-15T21:55:46.301Z,40.17
2019-01-15T21:58:39.767Z,38.17
2019-01-15T22:01:39.118Z,38.27
2019-01-15T22:04:20.107Z,38.67
2019-01-15T22:07:09.314Z,39.70
2019-01-15T22:10:00.957Z,45.40
2019-01-15T22:12:56.949Z,43.75
2019-01-15T22:15:50.307Z,45.77
2019-01-15T22:18:39.496Z,40.55
2019-01-15T22:21:33.182Z,41.40
2019-01-15T22:24:21.780Z,43.60
2019-01-15T22:27:14.758Z,47.13
2019-01-15T22:30:03.519Z,47.07
2019-01-15T22:33:25.136Z,43.07
2019-01-15T22:36:27.026Z,51.40
2019-01-15T22:39:20.614Z,55.40
2019-01-15T22:42:09.399Z,54.57
2019-01-15T22:45:17.828Z,49.30
2019-01-15T22:48:06.813Z,52.87
2019-01-15T22:50:59.775Z,57.37
2019-01-15T22:53:59.846Z,53.17
2019-01-15T22:56:50.738Z,57.03
2019-01-15T22:59:54.361Z,50.80
2019-01-15T23:03:12.909Z,51.43
2019-01-15T23:06:11.645Z,56.27
2019-01-15T23:09:00.029Z,53.15
2019-01-15T23:11:42.863Z,49.80
2019-01-15T23:14:31.877Z,49.95
2019-01-15T23:17:19.339Z,45.33
2019-01-15T23:20:08.034Z,49.70
2019-01-15T23:23:01.555Z,49.33
2019-01-15T23:25:49.342Z,48.60
2019-01-15T23:28:39.343Z,46.27
2019-01-15T23:31:38.451Z,45.53
2019-01-15T23:34:28.519Z,40.53
2019-01-15T23:37:17.032Z,45.23
2019-01-15T23:40:06.131Z,43.40
2019-01-15T23:42:55.244Z,39.77
2019-01-15T23:45:39.452Z,43.87
2019-01-15T23:48:29.942Z,45.03
2019-01-15T23:51:38.095Z,45.37
2019-01-15T23:54:26.598Z,46.87
2019-01-15T23:57:22.406Z,48.73
